createdAt,value
2022-09-26T00:03:27.875Z,8.30
2022-09-26T00:06:13.353Z,8.20
2022-09-26T00:09:05.515Z,8.20
2022-09-26T00:14:37.208Z,8.50
2022-09-26T00:20:27.801Z,8.50
2022-09-26T00:23:09.445Z,8.40
2022-09-26T00:25:44.115Z,8.30
2022-09-26T00:28:32.850Z,8.40
2022-09-26T00:34:42.826Z,8.40
2022-09-26T00:37:33.038Z,8.30
2022-09-26T00:40:29.088Z,8.30
2022-09-26T00:44:03.358Z,8.30
2022-09-26T00:50:26.491Z,8.10
2022-09-26T00:56:39.777Z,8.00
2022-09-26T00:59:38.196Z,8.20
2022-09-26T01:02:19.963Z,8.20
2022-09-26T01:05:06.161Z,8.20
2022-09-26T01:08:02.572Z,8.30
2022-09-26T01:11:06.514Z,8.10
2022-09-26T01:13:57.696Z,8.00
2022-09-26T01:16:44.822Z,8.00
2022-09-26T01:19:43.960Z,7.90
2022-09-26T01:23:04.658Z,7.90
2022-09-26T01:26:06.230Z,8.00
2022-09-26T01:28:58.675Z,7.90
2022-09-26T01:32:36.620Z,8.00
2022-09-26T01:35:44.363Z,7.90
2022-09-26T01:39:16.070Z,7.90
2022-09-26T01:42:22.054Z,7.90
2022-09-26T01:48:08.965Z,7.90
2022-09-26T01:51:04.000Z,7.90
2022-09-26T01:53:44.158Z,7.90
2022-09-26T01:56:18.646Z,7.90
2022-09-26T01:59:15.858Z,7.90
2022-09-26T02:02:06.633Z,7.80
2022-09-26T02:05:06.044Z,7.70
2022-09-26T02:08:11.248Z,7.70
2022-09-26T02:11:30.322Z,7.70
2022-09-26T02:16:02.075Z,7.60
2022-09-26T02:17:48.550Z,7.60
2022-09-26T02:21:38.011Z,7.60
2022-09-26T02:24:07.387Z,7.60
2022-09-26T02:26:36.800Z,7.50
2022-09-26T02:32:24.561Z,7.40
2022-09-26T02:35:58.582Z,7.30
2022-09-26T02:38:32.238Z,7.30
2022-09-26T02:43:11.353Z,7.40
2022-09-26T02:46:25.169Z,7.30
2022-09-26T02:49:36.922Z,7.30
2022-09-26T02:53:00.159Z,7.30
2022-09-26T02:56:05.700Z,7.40
2022-09-26T03:02:36.284Z,7.30
2022-09-26T03:05:44.028Z,7.40
2022-09-26T03:08:22.883Z,7.40
2022-09-26T03:12:10.366Z,7.30
2022-09-26T03:14:11.087Z,7.20
2022-09-26T03:16:48.924Z,7.10
2022-09-26T03:19:50.055Z,7.10
2022-09-26T03:22:31.342Z,7.10
2022-09-26T03:25:08.486Z,7.00
2022-09-26T03:30:43.544Z,7.00
2022-09-26T03:33:16.252Z,7.20
2022-09-26T03:35:54.096Z,7.10
2022-09-26T03:38:26.303Z,7.20
2022-09-26T03:41:06.968Z,7.20
2022-09-26T03:43:46.196Z,7.20
2022-09-26T03:46:38.955Z,7.20
2022-09-26T03:49:06.829Z,7.20
2022-09-26T03:51:53.417Z,7.20
2022-09-26T03:54:35.767Z,7.20
2022-09-26T03:57:38.387Z,7.30
2022-09-26T04:00:52.103Z,7.20
2022-09-26T04:03:42.373Z,7.20
2022-09-26T04:06:29.379Z,7.20
2022-09-26T04:14:55.635Z,7.20
2022-09-26T04:17:48.539Z,7.10
2022-09-26T04:20:47.598Z,7.10
2022-09-26T04:23:28.734Z,7.30
2022-09-26T04:26:26.323Z,7.30
2022-09-26T04:29:19.155Z,7.40
2022-09-26T04:32:09.414Z,7.40
2022-09-26T04:34:58.403Z,7.30
2022-09-26T04:38:03.065Z,7.30
2022-09-26T04:43:35.019Z,7.40
2022-09-26T04:49:42.019Z,7.40
2022-09-26T04:55:35.662Z,7.40
2022-09-26T04:58:16.229Z,7.50
2022-09-26T05:06:40.605Z,7.70
2022-09-26T05:09:22.069Z,7.60
2022-09-26T05:11:51.312Z,7.60
2022-09-26T05:14:20.595Z,7.70
2022-09-26T05:16:51.193Z,7.70
2022-09-26T05:19:23.277Z,7.80
2022-09-26T05:21:51.097Z,7.80
2022-09-26T05:24:45.342Z,7.80
2022-09-26T05:27:23.894Z,7.90
2022-09-26T05:29:52.232Z,8.00
2022-09-26T05:32:31.838Z,8.10
2022-09-26T05:39:23.567Z,8.30
2022-09-26T05:41:49.653Z,8.30
2022-09-26T05:45:03.143Z,8.40
2022-09-26T05:47:40.479Z,8.50
2022-09-26T05:50:34.414Z,8.60
2022-09-26T05:56:28.692Z,8.70
2022-09-26T05:59:49.813Z,8.70
2022-09-26T06:02:59.294Z,8.70
2022-09-26T06:05:36.783Z,8.80
2022-09-26T06:16:50.886Z,9.00
2022-09-26T06:19:23.332Z,9.10
2022-09-26T06:21:50.696Z,9.10
2022-09-26T06:24:21.614Z,9.10
2022-09-26T06:26:51.826Z,9.10
2022-09-26T06:29:22.138Z,9.10
2022-09-26T06:31:51.684Z,9.20
2022-09-26T06:34:21.980Z,9.20
2022-09-26T06:36:58.597Z,9.30
2022-09-26T06:39:35.906Z,9.50
2022-09-26T06:42:31.039Z,9.50
2022-09-26T06:45:12.582Z,9.60
2022-09-26T06:47:48.352Z,9.70
2022-09-26T06:50:38.540Z,9.80
2022-09-26T06:56:31.186Z,9.90
2022-09-26T07:02:09.810Z,10.00
2022-09-26T07:04:58.057Z,10.00
2022-09-26T07:07:54.679Z,10.00
2022-09-26T07:10:41.199Z,10.10
2022-09-26T07:13:25.854Z,10.20
2022-09-26T07:16:16.860Z,10.30
2022-09-26T07:18:57.487Z,10.40
2022-09-26T07:21:39.992Z,10.40
2022-09-26T07:24:46.164Z,10.60
2022-09-26T07:27:18.571Z,10.60
2022-09-26T07:29:50.712Z,10.60
2022-09-26T07:32:17.352Z,10.70
2022-09-26T07:34:44.026Z,10.80
2022-09-26T07:37:10.822Z,10.90
2022-09-26T07:39:37.561Z,11.00
2022-09-26T07:42:04.657Z,11.00
2022-09-26T07:47:37.547Z,11.10
2022-09-26T07:50:16.121Z,11.10
2022-09-26T07:52:46.691Z,11.20
2022-09-26T07:55:20.492Z,11.20
2022-09-26T07:57:50.133Z,11.30
2022-09-26T08:00:19.642Z,11.30
2022-09-26T08:02:46.817Z,11.30
2022-09-26T08:05:19.788Z,11.40
2022-09-26T08:07:48.129Z,11.50
2022-09-26T08:10:21.384Z,11.60
2022-09-26T08:12:48.372Z,11.70
2022-09-26T08:15:15.501Z,11.80
2022-09-26T08:17:43.333Z,11.90
2022-09-26T08:20:11.030Z,11.90
2022-09-26T08:22:37.724Z,12.00
2022-09-26T08:25:06.839Z,12.00
2022-09-26T08:27:34.733Z,12.10
2022-09-26T08:30:03.236Z,12.20
2022-09-26T08:32:32.224Z,12.30
2022-09-26T08:35:00.456Z,12.30
2022-09-26T08:37:28.207Z,12.50
2022-09-26T08:39:54.879Z,12.50
2022-09-26T08:43:04.377Z,12.60
2022-09-26T08:46:12.990Z,12.60
2022-09-26T08:48:58.254Z,12.70
2022-09-26T08:51:39.260Z,12.80
2022-09-26T08:54:14.501Z,13.00
2022-09-26T08:56:46.813Z,13.10
2022-09-26T08:59:29.911Z,13.20
2022-09-26T09:02:01.242Z,13.30
2022-09-26T09:04:44.052Z,13.50
2022-09-26T09:07:24.409Z,13.70
2022-09-26T09:09:55.291Z,13.90
2022-09-26T09:12:33.987Z,14.00
2022-09-26T09:15:26.334Z,14.10
2022-09-26T09:18:15.051Z,14.10
2022-09-26T09:20:56.969Z,14.10
2022-09-26T09:23:37.524Z,14.20
2022-09-26T09:29:10.499Z,14.20
2022-09-26T09:31:41.451Z,14.20
2022-09-26T09:34:27.942Z,14.30
2022-09-26T09:37:01.134Z,14.40
2022-09-26T09:39:36.914Z,14.40
2022-09-26T09:42:13.024Z,14.50
2022-09-26T09:44:47.638Z,14.40
2022-09-26T09:47:16.927Z,14.40
2022-09-26T09:49:46.139Z,14.30
2022-09-26T09:52:21.508Z,14.40
2022-09-26T09:55:21.561Z,14.70
2022-09-26T09:58:15.980Z,15.00
2022-09-26T10:00:51.762Z,15.20
2022-09-26T10:04:01.859Z,15.50
2022-09-26T10:06:45.841Z,15.70
2022-09-26T10:09:36.453Z,15.90
2022-09-26T10:12:17.229Z,16.40
2022-09-26T10:15:02.316Z,17.00
2022-09-26T10:17:29.726Z,17.70
2022-09-26T10:19:57.112Z,18.20
2022-09-26T10:22:45.006Z,18.30
2022-09-26T10:25:22.545Z,18.00
2022-09-26T10:27:57.857Z,17.60
2022-09-26T10:30:30.200Z,17.40
2022-09-26T10:33:01.767Z,17.20
2022-09-26T10:35:41.953Z,17.50
2022-09-26T10:38:19.833Z,17.50
2022-09-26T10:40:55.434Z,17.70
2022-09-26T10:43:33.228Z,17.50
2022-09-26T10:46:06.710Z,17.40
2022-09-26T10:48:48.936Z,17.30
2022-09-26T10:51:24.697Z,17.30
2022-09-26T10:54:02.860Z,17.30
2022-09-26T10:56:33.110Z,17.10
2022-09-26T10:59:01.784Z,17.10
2022-09-26T11:01:31.633Z,16.90
2022-09-26T11:04:15.361Z,16.90
2022-09-26T11:06:44.207Z,17.00
2022-09-26T11:09:22.466Z,16.90
2022-09-26T11:11:53.308Z,16.80
2022-09-26T11:14:32.715Z,16.50
2022-09-26T11:17:00.639Z,16.50
2022-09-26T11:19:44.968Z,16.40
2022-09-26T11:22:30.534Z,16.40
2022-09-26T11:25:28.577Z,16.40
2022-09-26T11:28:10.465Z,16.30
2022-09-26T11:30:47.933Z,16.30
2022-09-26T11:33:18.816Z,16.40
2022-09-26T11:36:03.533Z,16.40
2022-09-26T11:38:47.129Z,16.40
2022-09-26T11:41:39.411Z,16.40
2022-09-26T11:44:37.061Z,16.30
2022-09-26T11:47:06.814Z,16.20
2022-09-26T11:49:59.125Z,16.10
2022-09-26T11:52:34.874Z,16.10
2022-09-26T11:55:39.261Z,16.20
2022-09-26T11:58:51.539Z,16.30
2022-09-26T12:01:31.383Z,16.20
2022-09-26T12:04:24.319Z,16.10
2022-09-26T12:07:16.330Z,16.00
2022-09-26T12:09:54.943Z,15.90
2022-09-26T12:12:34.910Z,15.90
2022-09-26T12:15:27.249Z,15.90
2022-09-26T12:18:19.027Z,15.70
2022-09-26T12:21:15.199Z,15.70
2022-09-26T12:24:14.421Z,15.70
2022-09-26T12:27:00.686Z,15.70
2022-09-26T12:29:59.192Z,15.60
2022-09-26T12:33:06.856Z,15.60
2022-09-26T12:36:10.203Z,15.50
2022-09-26T12:38:50.101Z,15.60
2022-09-26T12:41:46.411Z,15.70
2022-09-26T12:44:41.871Z,15.70
2022-09-26T12:47:38.543Z,15.60
2022-09-26T12:50:30.919Z,15.50
2022-09-26T12:53:19.338Z,15.50
2022-09-26T12:56:08.361Z,15.50
2022-09-26T12:58:46.977Z,15.50
2022-09-26T13:01:50.332Z,15.60
2022-09-26T13:04:44.455Z,15.70
2022-09-26T13:07:49.405Z,15.90
2022-09-26T13:10:51.204Z,16.10
2022-09-26T13:13:26.956Z,16.30
2022-09-26T13:16:30.350Z,16.40
2022-09-26T13:19:16.408Z,16.40
2022-09-26T13:22:06.983Z,16.20
2022-09-26T13:25:01.526Z,16.20
2022-09-26T13:27:36.287Z,16.20
2022-09-26T13:30:24.296Z,16.10
2022-09-26T13:33:03.748Z,16.10
2022-09-26T13:35:36.533Z,16.00
2022-09-26T13:38:17.935Z,16.10
2022-09-26T13:40:56.510Z,15.90
2022-09-26T13:43:47.467Z,16.00
2022-09-26T13:46:42.244Z,15.90
2022-09-26T13:49:33.884Z,16.00
2022-09-26T13:52:19.117Z,16.00
2022-09-26T13:54:54.911Z,15.90
2022-09-26T13:58:07.066Z,15.90
2022-09-26T14:00:40.924Z,15.90
2022-09-26T14:03:13.262Z,15.90
2022-09-26T14:05:49.266Z,15.80
2022-09-26T14:08:54.830Z,15.70
2022-09-26T14:11:45.853Z,15.60
2022-09-26T14:14:18.588Z,15.50
2022-09-26T14:17:00.757Z,15.40
2022-09-26T14:19:42.457Z,15.30
2022-09-26T14:22:23.597Z,15.30
2022-09-26T14:24:54.327Z,15.20
2022-09-26T14:27:20.973Z,15.20
2022-09-26T14:29:51.157Z,15.20
2022-09-26T14:32:21.556Z,15.20
2022-09-26T14:34:56.912Z,15.30
2022-09-26T14:37:26.522Z,15.30
2022-09-26T14:40:21.043Z,15.30
2022-09-26T14:43:03.717Z,15.20
2022-09-26T14:45:33.327Z,15.20
2022-09-26T14:48:02.842Z,15.20
2022-09-26T14:50:35.294Z,15.10
2022-09-26T14:53:13.142Z,15.00
2022-09-26T14:55:54.636Z,14.90
2022-09-26T14:58:50.780Z,14.80
2022-09-26T15:01:38.805Z,14.80
2022-09-26T15:04:23.975Z,14.70
2022-09-26T15:07:01.576Z,14.70
2022-09-26T15:09:41.996Z,14.60
2022-09-26T15:12:15.437Z,14.60
2022-09-26T15:14:52.585Z,14.60
2022-09-26T15:17:27.652Z,14.60
2022-09-26T15:19:57.508Z,14.60
2022-09-26T15:22:27.023Z,14.60
2022-09-26T15:24:55.241Z,14.50
2022-09-26T15:27:29.780Z,14.50
2022-09-26T15:30:13.411Z,14.40
2022-09-26T15:32:40.194Z,14.40
2022-09-26T15:35:12.547Z,14.40
2022-09-26T15:37:39.533Z,14.30
2022-09-26T15:40:25.760Z,14.30
2022-09-26T15:43:20.736Z,14.20
2022-09-26T15:45:47.720Z,14.20
2022-09-26T15:48:20.295Z,14.10
2022-09-26T15:50:48.674Z,14.00
2022-09-26T15:53:46.128Z,14.00
2022-09-26T15:56:21.245Z,13.90
2022-09-26T15:58:53.516Z,13.90
2022-09-26T16:01:22.620Z,13.80
2022-09-26T16:04:02.821Z,13.80
2022-09-26T16:06:38.107Z,13.70
2022-09-26T16:09:14.366Z,13.70
2022-09-26T16:11:48.435Z,13.70
2022-09-26T16:14:23.227Z,13.60
2022-09-26T16:16:49.972Z,13.60
2022-09-26T16:19:29.623Z,13.50
2022-09-26T16:21:56.843Z,13.50
2022-09-26T16:24:39.084Z,13.40
2022-09-26T16:27:38.339Z,13.30
2022-09-26T16:30:28.905Z,13.20
2022-09-26T16:33:08.017Z,13.20
2022-09-26T16:35:37.234Z,13.10
2022-09-26T16:38:36.853Z,13.10
2022-09-26T16:41:31.368Z,12.90
2022-09-26T16:44:17.158Z,12.80
2022-09-26T16:47:27.923Z,12.70
2022-09-26T16:49:56.347Z,12.70
2022-09-26T16:52:32.057Z,12.50
2022-09-26T16:55:01.420Z,12.40
2022-09-26T16:57:34.556Z,12.30
2022-09-26T17:00:33.375Z,12.30
2022-09-26T17:03:02.392Z,12.30
2022-09-26T17:05:31.957Z,12.20
2022-09-26T17:07:59.560Z,12.20
2022-09-26T17:10:26.605Z,12.10
2022-09-26T17:12:53.695Z,12.10
2022-09-26T17:15:30.130Z,12.10
2022-09-26T17:18:02.377Z,12.10
2022-09-26T17:20:29.231Z,12.10
2022-09-26T17:22:55.896Z,12.00
2022-09-26T17:25:25.343Z,11.90
2022-09-26T17:28:06.181Z,11.90
2022-09-26T17:32:15.297Z,11.90
2022-09-26T17:33:32.579Z,11.90
2022-09-26T17:36:03.251Z,11.80
2022-09-26T17:38:33.620Z,11.80
2022-09-26T17:41:05.781Z,11.70
2022-09-26T17:43:37.121Z,11.70
2022-09-26T17:46:16.955Z,11.70
2022-09-26T17:48:45.983Z,11.60
2022-09-26T17:51:37.042Z,11.60
2022-09-26T17:54:09.488Z,11.50
2022-09-26T17:59:23.315Z,11.40
2022-09-26T18:02:23.380Z,11.40
2022-09-26T18:05:00.386Z,11.40
2022-09-26T18:07:38.080Z,11.30
2022-09-26T18:10:07.753Z,11.30
2022-09-26T18:12:35.115Z,11.30
2022-09-26T18:15:09.568Z,11.30
2022-09-26T18:17:36.718Z,11.30
2022-09-26T18:20:09.299Z,11.20
2022-09-26T18:22:36.216Z,11.20
2022-09-26T18:25:07.208Z,11.30
2022-09-26T18:27:43.848Z,11.30
2022-09-26T18:30:15.305Z,11.30
2022-09-26T18:32:46.187Z,11.30
2022-09-26T18:35:17.852Z,11.40
2022-09-26T18:37:48.478Z,11.30
2022-09-26T18:40:17.114Z,11.30
2022-09-26T18:42:44.944Z,11.30
2022-09-26T18:45:20.014Z,11.30
2022-09-26T18:47:56.201Z,11.30
2022-09-26T18:50:42.022Z,11.20
2022-09-26T18:53:32.002Z,11.20
2022-09-26T18:56:21.243Z,11.10
2022-09-26T18:58:51.651Z,11.10
2022-09-26T19:01:41.650Z,11.20
2022-09-26T19:04:20.138Z,11.20
2022-09-26T19:06:53.073Z,11.10
2022-09-26T19:09:25.324Z,11.00
2022-09-26T19:15:20.840Z,10.90
2022-09-26T19:18:00.596Z,10.80
2022-09-26T19:21:54.951Z,10.90
2022-09-26T19:28:39.531Z,10.90
2022-09-26T19:39:12.733Z,11.10
2022-09-26T19:41:49.477Z,11.10
2022-09-26T19:44:16.522Z,11.10
2022-09-26T19:46:54.727Z,11.20
2022-09-26T19:49:54.417Z,11.20
2022-09-26T19:52:30.766Z,11.20
2022-09-26T19:55:00.955Z,11.20
2022-09-26T19:57:27.998Z,11.20
2022-09-26T19:59:57.293Z,11.20
2022-09-26T20:02:54.113Z,11.30
2022-09-26T20:16:06.307Z,11.20
2022-09-26T20:18:35.781Z,11.20
2022-09-26T20:26:00.750Z,11.20
2022-09-26T20:40:04.679Z,11.40
2022-09-26T20:42:55.795Z,11.40
2022-09-26T20:46:26.734Z,11.40
2022-09-26T20:49:20.999Z,11.40
2022-09-26T20:52:18.830Z,11.50
2022-09-26T20:55:25.472Z,11.40
2022-09-26T20:58:27.770Z,11.40
2022-09-26T21:01:44.407Z,11.40
2022-09-26T21:05:25.918Z,11.40
2022-09-26T21:08:02.372Z,11.40
2022-09-26T21:18:22.363Z,11.40
2022-09-26T21:21:57.266Z,11.40
2022-09-26T21:25:06.659Z,11.40
2022-09-26T21:28:17.951Z,11.40
2022-09-26T21:31:23.619Z,11.40
2022-09-26T21:34:48.387Z,11.40
2022-09-26T21:37:26.726Z,11.40
2022-09-26T21:40:21.943Z,11.40
2022-09-26T21:43:15.708Z,11.40
2022-09-26T21:46:05.750Z,11.30
2022-09-26T21:49:55.552Z,11.30
2022-09-26T21:56:20.294Z,11.30
2022-09-26T21:59:09.811Z,11.30
2022-09-26T22:02:24.234Z,11.30
2022-09-26T22:22:49.542Z,11.40
2022-09-26T22:25:50.079Z,11.40
2022-09-26T22:28:43.821Z,11.30
2022-09-26T22:31:14.764Z,11.40
2022-09-26T22:34:02.885Z,11.30
2022-09-26T22:36:58.990Z,11.30
2022-09-26T22:43:34.411Z,11.30
2022-09-26T22:50:06.472Z,11.30
2022-09-26T22:59:40.242Z,11.20
2022-09-26T23:16:28.825Z,11.20
2022-09-26T23:18:56.272Z,11.30
2022-09-26T23:21:43.977Z,11.30
2022-09-26T23:24:13.014Z,11.30
2022-09-26T23:26:39.864Z,11.30
2022-09-26T23:29:06.642Z,11.30
2022-09-26T23:31:33.317Z,11.40
2022-09-26T23:34:04.595Z,11.40
2022-09-26T23:36:36.104Z,11.40
2022-09-26T23:39:02.891Z,11.50
2022-09-26T23:41:33.494Z,11.50
2022-09-26T23:44:00.545Z,11.50
2022-09-26T23:46:27.749Z,11.50
2022-09-26T23:48:54.522Z,11.50
2022-09-26T23:51:21.520Z,11.50
2022-09-26T23:53:53.023Z,11.50
2022-09-26T23:56:33.717Z,11.50
2022-09-26T23:59:20.686Z,11.50
